Terminal Aerodrome Forecast
Issued by NWS Charleston, WV

Current Version | Previous Version | Graphics & Text | Print | Product List | Glossary On
Versions: 1 2 3 4 5 6 7 8 9 10 11 12 13 14 15 16 17 18 19 20 21 22
279
FTUS41 KRLX 081453 AAB
TAFCRW
TAF AMD
KCRW 081453Z 0815/0912 26007KT P6SM BKN080
     FM081700 27008KT P6SM SCT250
     FM082300 28009G15KT P6SM BKN040
     FM090600 29008KT P6SM OVC025=

USA.gov is the U.S. government's official web portal to all federal, state and local government web resources and services.